sensor_id;sensor_type;location;lat;lon;timestamp;temperature;humidity
72772;SHT30;60894;42.544;1.516;2023-01-29T00:00:35;-1.94;54.11
72772;SHT30;60894;42.544;1.516;2023-01-29T00:03:02;-2.04;55.02
72772;SHT30;60894;42.544;1.516;2023-01-29T00:05:30;-2.08;54.66
72772;SHT30;60894;42.544;1.516;2023-01-29T00:07:57;-2.06;54.43
72772;SHT30;60894;42.544;1.516;2023-01-29T00:10:24;-2.08;54.56
72772;SHT30;60894;42.544;1.516;2023-01-29T00:12:51;-2.24;55.33
72772;SHT30;60894;42.544;1.516;2023-01-29T00:15:18;-2.24;55.23
72772;SHT30;60894;42.544;1.516;2023-01-29T00:17:47;-2.27;55.49
72772;SHT30;60894;42.544;1.516;2023-01-29T00:20:14;-2.44;55.93
72772;SHT30;60894;42.544;1.516;2023-01-29T00:22:41;-2.47;56.29
72772;SHT30;60894;42.544;1.516;2023-01-29T00:25:08;-2.47;55.77
72772;SHT30;60894;42.544;1.516;2023-01-29T00:27:36;-2.49;55.69
72772;SHT30;60894;42.544;1.516;2023-01-29T00:30:03;-2.41;55.60
72772;SHT30;60894;42.544;1.516;2023-01-29T00:32:37;-2.52;56.31
72772;SHT30;60894;42.544;1.516;2023-01-29T00:35:07;-2.52;56.20
72772;SHT30;60894;42.544;1.516;2023-01-29T00:37:35;-2.52;56.08
72772;SHT30;60894;42.544;1.516;2023-01-29T00:40:02;-2.55;56.14
72772;SHT30;60894;42.544;1.516;2023-01-29T00:42:29;-2.42;54.23
72772;SHT30;60894;42.544;1.516;2023-01-29T00:45:14;-2.38;55.02
72772;SHT30;60894;42.544;1.516;2023-01-29T00:47:41;-2.26;54.42
72772;SHT30;60894;42.544;1.516;2023-01-29T00:50:10;-2.21;54.73
72772;SHT30;60894;42.544;1.516;2023-01-29T00:52:37;-2.14;54.10
72772;SHT30;60894;42.544;1.516;2023-01-29T00:55:06;-2.04;53.12
72772;SHT30;60894;42.544;1.516;2023-01-29T00:57:34;-2.00;52.28
72772;SHT30;60894;42.544;1.516;2023-01-29T01:00:02;-2.00;54.08
72772;SHT30;60894;42.544;1.516;2023-01-29T01:02:30;-2.24;54.69
72772;SHT30;60894;42.544;1.516;2023-01-29T01:05:16;-2.24;54.86
72772;SHT30;60894;42.544;1.516;2023-01-29T01:07:44;-2.30;55.02
72772;SHT30;60894;42.544;1.516;2023-01-29T01:10:14;-2.30;54.83
72772;SHT30;60894;42.544;1.516;2023-01-29T01:12:47;-2.34;54.09
72772;SHT30;60894;42.544;1.516;2023-01-29T01:15:15;-2.21;53.31
72772;SHT30;60894;42.544;1.516;2023-01-29T01:17:42;-2.42;56.16
72772;SHT30;60894;42.544;1.516;2023-01-29T01:20:10;-2.54;56.16
72772;SHT30;60894;42.544;1.516;2023-01-29T01:22:39;-2.68;55.91
72772;SHT30;60894;42.544;1.516;2023-01-29T01:25:07;-2.73;56.11
72772;SHT30;60894;42.544;1.516;2023-01-29T01:27:34;-2.82;56.05
72772;SHT30;60894;42.544;1.516;2023-01-29T01:30:07;-2.97;56.47
72772;SHT30;60894;42.544;1.516;2023-01-29T01:32:34;-2.96;56.41
72772;SHT30;60894;42.544;1.516;2023-01-29T01:35:02;-2.99;56.52
72772;SHT30;60894;42.544;1.516;2023-01-29T01:37:29;-3.01;56.55
72772;SHT30;60894;42.544;1.516;2023-01-29T01:39:57;-3.06;56.78
72772;SHT30;60894;42.544;1.516;2023-01-29T01:42:27;-3.10;56.70
72772;SHT30;60894;42.544;1.516;2023-01-29T01:44:59;-3.10;56.88
72772;SHT30;60894;42.544;1.516;2023-01-29T01:47:37;-3.13;56.96
72772;SHT30;60894;42.544;1.516;2023-01-29T01:50:08;-3.21;57.07
72772;SHT30;60894;42.544;1.516;2023-01-29T01:52:41;-3.27;57.25
72772;SHT30;60894;42.544;1.516;2023-01-29T01:55:12;-3.31;57.44
72772;SHT30;60894;42.544;1.516;2023-01-29T01:57:42;-3.36;57.47
72772;SHT30;60894;42.544;1.516;2023-01-29T02:00:14;-3.40;57.65
72772;SHT30;60894;42.544;1.516;2023-01-29T02:02:43;-3.44;57.77
72772;SHT30;60894;42.544;1.516;2023-01-29T02:05:29;-3.39;57.79
72772;SHT30;60894;42.544;1.516;2023-01-29T02:08:16;-3.41;57.77
72772;SHT30;60894;42.544;1.516;2023-01-29T02:11:05;-3.37;57.46
72772;SHT30;60894;42.544;1.516;2023-01-29T02:13:32;-3.41;57.56
72772;SHT30;60894;42.544;1.516;2023-01-29T02:16:00;-3.43;57.67
72772;SHT30;60894;42.544;1.516;2023-01-29T02:18:27;-3.41;57.54
72772;SHT30;60894;42.544;1.516;2023-01-29T02:21:11;-3.46;57.88
72772;SHT30;60894;42.544;1.516;2023-01-29T02:26:52;-3.48;57.96
72772;SHT30;60894;42.544;1.516;2023-01-29T02:29:28;-3.47;57.71
72772;SHT30;60894;42.544;1.516;2023-01-29T02:32:11;-3.52;57.52
72772;SHT30;60894;42.544;1.516;2023-01-29T02:34:47;-3.55;57.80
72772;SHT30;60894;42.544;1.516;2023-01-29T02:37:37;-3.65;58.06
72772;SHT30;60894;42.544;1.516;2023-01-29T02:40:11;-3.62;57.83
72772;SHT30;60894;42.544;1.516;2023-01-29T02:42:46;-3.61;58.04
72772;SHT30;60894;42.544;1.516;2023-01-29T02:45:18;-3.65;57.88
72772;SHT30;60894;42.544;1.516;2023-01-29T02:47:51;-3.64;58.03
72772;SHT30;60894;42.544;1.516;2023-01-29T02:50:25;-3.58;57.75
72772;SHT30;60894;42.544;1.516;2023-01-29T02:52:57;-3.61;57.77
72772;SHT30;60894;42.544;1.516;2023-01-29T02:55:31;-3.60;57.86
72772;SHT30;60894;42.544;1.516;2023-01-29T02:58:04;-3.60;57.72
72772;SHT30;60894;42.544;1.516;2023-01-29T03:00:37;-3.67;57.91
72772;SHT30;60894;42.544;1.516;2023-01-29T03:03:09;-3.61;57.93
72772;SHT30;60894;42.544;1.516;2023-01-29T03:05:44;-3.65;58.08
72772;SHT30;60894;42.544;1.516;2023-01-29T03:08:23;-3.64;57.93
72772;SHT30;60894;42.544;1.516;2023-01-29T03:11:03;-3.62;57.83
72772;SHT30;60894;42.544;1.516;2023-01-29T03:13:37;-3.62;57.85
72772;SHT30;60894;42.544;1.516;2023-01-29T03:16:13;-3.61;57.86
72772;SHT30;60894;42.544;1.516;2023-01-29T03:18:48;-3.61;58.15
72772;SHT30;60894;42.544;1.516;2023-01-29T03:21:20;-3.65;57.98
72772;SHT30;60894;42.544;1.516;2023-01-29T03:24:08;-3.62;58.23
72772;SHT30;60894;42.544;1.516;2023-01-29T03:26:53;-3.64;58.55
72772;SHT30;60894;42.544;1.516;2023-01-29T03:29:39;-3.61;58.30
72772;SHT30;60894;42.544;1.516;2023-01-29T03:32:27;-3.51;57.29
72772;SHT30;60894;42.544;1.516;2023-01-29T03:34:57;-3.64;57.43
72772;SHT30;60894;42.544;1.516;2023-01-29T03:37:30;-3.70;57.58
72772;SHT30;60894;42.544;1.516;2023-01-29T03:40:00;-3.75;58.09
72772;SHT30;60894;42.544;1.516;2023-01-29T03:42:30;-3.79;60.05
72772;SHT30;60894;42.544;1.516;2023-01-29T03:45:05;-3.74;59.90
72772;SHT30;60894;42.544;1.516;2023-01-29T03:47:42;-3.77;58.98
72772;SHT30;60894;42.544;1.516;2023-01-29T03:50:19;-3.70;58.35
72772;SHT30;60894;42.544;1.516;2023-01-29T03:52:55;-3.72;58.80
72772;SHT30;60894;42.544;1.516;2023-01-29T03:55:34;-3.64;58.25
72772;SHT30;60894;42.544;1.516;2023-01-29T03:58:08;-3.54;58.03
72772;SHT30;60894;42.544;1.516;2023-01-29T04:00:41;-3.65;58.04
72772;SHT30;60894;42.544;1.516;2023-01-29T04:03:16;-3.72;58.59
72772;SHT30;60894;42.544;1.516;2023-01-29T04:05:49;-3.89;59.53
72772;SHT30;60894;42.544;1.516;2023-01-29T04:08:22;-3.89;59.20
72772;SHT30;60894;42.544;1.516;2023-01-29T04:10:53;-3.92;59.65
72772;SHT30;60894;42.544;1.516;2023-01-29T04:13:23;-3.83;60.22
72772;SHT30;60894;42.544;1.516;2023-01-29T04:15:55;-3.91;60.19
72772;SHT30;60894;42.544;1.516;2023-01-29T04:18:25;-3.89;60.13
72772;SHT30;60894;42.544;1.516;2023-01-29T04:20:52;-3.96;59.32
72772;SHT30;60894;42.544;1.516;2023-01-29T04:23:21;-4.02;59.58
72772;SHT30;60894;42.544;1.516;2023-01-29T04:25:56;-3.98;59.59
72772;SHT30;60894;42.544;1.516;2023-01-29T04:28:44;-3.92;58.72
72772;SHT30;60894;42.544;1.516;2023-01-29T04:31:15;-4.01;59.83
72772;SHT30;60894;42.544;1.516;2023-01-29T04:33:49;-3.91;60.76
72772;SHT30;60894;42.544;1.516;2023-01-29T04:36:29;-3.99;60.86
72772;SHT30;60894;42.544;1.516;2023-01-29T04:39:05;-3.81;60.40
72772;SHT30;60894;42.544;1.516;2023-01-29T04:41:37;-3.99;59.26
72772;SHT30;60894;42.544;1.516;2023-01-29T04:44:15;-3.95;58.32
72772;SHT30;60894;42.544;1.516;2023-01-29T04:46:47;-4.12;59.14
72772;SHT30;60894;42.544;1.516;2023-01-29T04:49:28;-4.20;59.85
72772;SHT30;60894;42.544;1.516;2023-01-29T04:52:01;-4.13;60.01
72772;SHT30;60894;42.544;1.516;2023-01-29T04:54:41;-4.10;61.34
72772;SHT30;60894;42.544;1.516;2023-01-29T04:57:16;-4.13;61.20
72772;SHT30;60894;42.544;1.516;2023-01-29T04:59:51;-4.12;61.50
72772;SHT30;60894;42.544;1.516;2023-01-29T05:02:22;-4.13;60.61
72772;SHT30;60894;42.544;1.516;2023-01-29T05:04:53;-4.12;60.63
72772;SHT30;60894;42.544;1.516;2023-01-29T05:07:21;-4.17;60.67
72772;SHT30;60894;42.544;1.516;2023-01-29T05:09:49;-4.13;62.22
72772;SHT30;60894;42.544;1.516;2023-01-29T05:12:17;-4.10;62.39
72772;SHT30;60894;42.544;1.516;2023-01-29T05:14:45;-4.07;61.62
72772;SHT30;60894;42.544;1.516;2023-01-29T05:17:15;-4.10;61.50
72772;SHT30;60894;42.544;1.516;2023-01-29T05:19:44;-4.10;61.49
72772;SHT30;60894;42.544;1.516;2023-01-29T05:22:15;-4.09;60.86
72772;SHT30;60894;42.544;1.516;2023-01-29T05:24:47;-4.13;60.24
72772;SHT30;60894;42.544;1.516;2023-01-29T05:27:16;-4.14;60.64
72772;SHT30;60894;42.544;1.516;2023-01-29T05:30:01;-4.24;60.88
72772;SHT30;60894;42.544;1.516;2023-01-29T05:32:28;-4.29;60.58
72772;SHT30;60894;42.544;1.516;2023-01-29T05:34:55;-4.29;60.52
72772;SHT30;60894;42.544;1.516;2023-01-29T05:37:24;-4.23;60.62
72772;SHT30;60894;42.544;1.516;2023-01-29T05:39:51;-4.26;61.38
72772;SHT30;60894;42.544;1.516;2023-01-29T05:42:18;-4.27;62.12
72772;SHT30;60894;42.544;1.516;2023-01-29T05:44:45;-4.30;62.48
72772;SHT30;60894;42.544;1.516;2023-01-29T05:47:12;-4.36;62.50
72772;SHT30;60894;42.544;1.516;2023-01-29T05:49:39;-4.36;62.46
72772;SHT30;60894;42.544;1.516;2023-01-29T05:52:06;-4.39;62.87
72772;SHT30;60894;42.544;1.516;2023-01-29T05:54:34;-4.37;62.74
72772;SHT30;60894;42.544;1.516;2023-01-29T05:57:01;-4.42;62.54
72772;SHT30;60894;42.544;1.516;2023-01-29T05:59:28;-4.33;62.61
72772;SHT30;60894;42.544;1.516;2023-01-29T06:01:56;-4.43;63.32
72772;SHT30;60894;42.544;1.516;2023-01-29T06:04:23;-4.36;62.89
72772;SHT30;60894;42.544;1.516;2023-01-29T06:06:50;-4.42;63.37
72772;SHT30;60894;42.544;1.516;2023-01-29T06:09:17;-4.37;62.84
72772;SHT30;60894;42.544;1.516;2023-01-29T06:11:45;-4.30;62.69
72772;SHT30;60894;42.544;1.516;2023-01-29T06:14:12;-4.24;62.05
72772;SHT30;60894;42.544;1.516;2023-01-29T06:16:39;-4.36;61.97
72772;SHT30;60894;42.544;1.516;2023-01-29T06:19:06;-4.36;62.32
72772;SHT30;60894;42.544;1.516;2023-01-29T06:21:33;-4.47;63.40
72772;SHT30;60894;42.544;1.516;2023-01-29T06:24:00;-4.50;64.20
72772;SHT30;60894;42.544;1.516;2023-01-29T06:26:27;-4.44;63.76
72772;SHT30;60894;42.544;1.516;2023-01-29T06:28:56;-4.52;63.31
72772;SHT30;60894;42.544;1.516;2023-01-29T06:31:23;-4.54;63.34
72772;SHT30;60894;42.544;1.516;2023-01-29T06:33:50;-4.56;63.63
72772;SHT30;60894;42.544;1.516;2023-01-29T06:36:17;-4.49;62.85
72772;SHT30;60894;42.544;1.516;2023-01-29T06:38:44;-4.44;62.29
72772;SHT30;60894;42.544;1.516;2023-01-29T06:41:13;-4.49;62.24
72772;SHT30;60894;42.544;1.516;2023-01-29T06:43:43;-4.50;62.71
72772;SHT30;60894;42.544;1.516;2023-01-29T06:46:12;-4.47;62.86
72772;SHT30;60894;42.544;1.516;2023-01-29T06:48:39;-4.40;62.41
72772;SHT30;60894;42.544;1.516;2023-01-29T06:51:08;-4.40;62.44
72772;SHT30;60894;42.544;1.516;2023-01-29T06:53:36;-4.36;61.49
72772;SHT30;60894;42.544;1.516;2023-01-29T06:56:05;-4.39;61.47
72772;SHT30;60894;42.544;1.516;2023-01-29T06:58:32;-4.44;61.50
72772;SHT30;60894;42.544;1.516;2023-01-29T07:01:03;-4.52;62.12
72772;SHT30;60894;42.544;1.516;2023-01-29T07:03:32;-4.49;62.44
72772;SHT30;60894;42.544;1.516;2023-01-29T07:05:59;-4.46;62.79
72772;SHT30;60894;42.544;1.516;2023-01-29T07:08:26;-4.54;63.24
72772;SHT30;60894;42.544;1.516;2023-01-29T07:10:57;-4.39;63.09
72772;SHT30;60894;42.544;1.516;2023-01-29T07:13:24;-4.37;61.98
72772;SHT30;60894;42.544;1.516;2023-01-29T07:15:51;-4.34;62.13
72772;SHT30;60894;42.544;1.516;2023-01-29T07:18:18;-4.32;61.14
72772;SHT30;60894;42.544;1.516;2023-01-29T07:20:47;-4.43;62.25
72772;SHT30;60894;42.544;1.516;2023-01-29T07:23:14;-4.49;63.22
72772;SHT30;60894;42.544;1.516;2023-01-29T07:25:42;-4.40;62.01
72772;SHT30;60894;42.544;1.516;2023-01-29T07:28:09;-4.36;61.86
72772;SHT30;60894;42.544;1.516;2023-01-29T07:30:36;-4.33;60.84
72772;SHT30;60894;42.544;1.516;2023-01-29T07:33:05;-4.34;60.49
72772;SHT30;60894;42.544;1.516;2023-01-29T07:35:35;-4.47;61.00
72772;SHT30;60894;42.544;1.516;2023-01-29T07:38:04;-4.36;61.01
72772;SHT30;60894;42.544;1.516;2023-01-29T07:40:31;-4.47;62.14
72772;SHT30;60894;42.544;1.516;2023-01-29T07:42:58;-4.42;62.08
72772;SHT30;60894;42.544;1.516;2023-01-29T07:45:25;-4.34;61.10
72772;SHT30;60894;42.544;1.516;2023-01-29T07:47:52;-4.40;61.07
72772;SHT30;60894;42.544;1.516;2023-01-29T07:50:20;-4.42;60.98
72772;SHT30;60894;42.544;1.516;2023-01-29T07:52:47;-4.49;61.38
72772;SHT30;60894;42.544;1.516;2023-01-29T07:55:16;-4.46;62.10
72772;SHT30;60894;42.544;1.516;2023-01-29T07:57:43;-4.37;61.85
72772;SHT30;60894;42.544;1.516;2023-01-29T08:00:11;-4.42;61.92
72772;SHT30;60894;42.544;1.516;2023-01-29T08:02:39;-4.42;62.55
72772;SHT30;60894;42.544;1.516;2023-01-29T08:05:07;-4.30;60.72
72772;SHT30;60894;42.544;1.516;2023-01-29T08:07:34;-4.34;60.71
72772;SHT30;60894;42.544;1.516;2023-01-29T08:10:01;-4.33;61.41
72772;SHT30;60894;42.544;1.516;2023-01-29T08:12:30;-4.36;62.50
72772;SHT30;60894;42.544;1.516;2023-01-29T08:14:57;-4.33;62.28
72772;SHT30;60894;42.544;1.516;2023-01-29T08:17:24;-4.30;61.89
72772;SHT30;60894;42.544;1.516;2023-01-29T08:19:51;-4.33;61.22
72772;SHT30;60894;42.544;1.516;2023-01-29T08:22:17;-4.29;60.87
72772;SHT30;60894;42.544;1.516;2023-01-29T08:24:44;-4.20;60.72
72772;SHT30;60894;42.544;1.516;2023-01-29T08:27:11;-4.06;61.20
72772;SHT30;60894;42.544;1.516;2023-01-29T08:29:40;-4.05;61.58
72772;SHT30;60894;42.544;1.516;2023-01-29T08:32:08;-3.96;61.61
72772;SHT30;60894;42.544;1.516;2023-01-29T08:34:35;-3.88;61.84
72772;SHT30;60894;42.544;1.516;2023-01-29T08:37:02;-3.71;61.20
72772;SHT30;60894;42.544;1.516;2023-01-29T08:39:29;-3.67;61.13
72772;SHT30;60894;42.544;1.516;2023-01-29T08:41:56;-3.61;60.59
72772;SHT30;60894;42.544;1.516;2023-01-29T08:44:23;-3.51;60.15
72772;SHT30;60894;42.544;1.516;2023-01-29T08:46:52;-3.30;58.77
72772;SHT30;60894;42.544;1.516;2023-01-29T08:49:19;-3.31;58.79
72772;SHT30;60894;42.544;1.516;2023-01-29T08:51:46;-3.17;58.57
72772;SHT30;60894;42.544;1.516;2023-01-29T08:54:13;-2.96;58.14
72772;SHT30;60894;42.544;1.516;2023-01-29T08:56:40;-2.96;57.47
72772;SHT30;60894;42.544;1.516;2023-01-29T08:59:08;-2.88;57.27
72772;SHT30;60894;42.544;1.516;2023-01-29T09:01:35;-2.76;57.10
72772;SHT30;60894;42.544;1.516;2023-01-29T09:04:04;-2.68;56.49
72772;SHT30;60894;42.544;1.516;2023-01-29T09:06:31;-2.51;56.41
72772;SHT30;60894;42.544;1.516;2023-01-29T09:08:58;-2.49;55.87
72772;SHT30;60894;42.544;1.516;2023-01-29T09:11:25;-2.51;55.18
72772;SHT30;60894;42.544;1.516;2023-01-29T09:13:52;-2.36;54.98
72772;SHT30;60894;42.544;1.516;2023-01-29T09:16:19;-2.21;55.36
72772;SHT30;60894;42.544;1.516;2023-01-29T09:18:46;-1.97;54.55
72772;SHT30;60894;42.544;1.516;2023-01-29T09:21:15;-1.97;53.72
72772;SHT30;60894;42.544;1.516;2023-01-29T09:23:42;-1.85;53.72
72772;SHT30;60894;42.544;1.516;2023-01-29T09:26:09;-1.75;53.28
72772;SHT30;60894;42.544;1.516;2023-01-29T09:28:36;-1.75;52.88
72772;SHT30;60894;42.544;1.516;2023-01-29T09:31:03;-1.56;53.16
72772;SHT30;60894;42.544;1.516;2023-01-29T09:33:30;-1.38;52.48
72772;SHT30;60894;42.544;1.516;2023-01-29T09:35:58;-1.34;52.11
72772;SHT30;60894;42.544;1.516;2023-01-29T09:38:26;-1.18;51.60
72772;SHT30;60894;42.544;1.516;2023-01-29T09:41:02;-0.72;57.35
72772;SHT30;60894;42.544;1.516;2023-01-29T09:43:39;-0.25;50.86
72772;SHT30;60894;42.544;1.516;2023-01-29T09:46:16;-0.11;48.62
72772;SHT30;60894;42.544;1.516;2023-01-29T09:48:45;-0.06;47.85
72772;SHT30;60894;42.544;1.516;2023-01-29T09:51:20;0.25;48.38
72772;SHT30;60894;42.544;1.516;2023-01-29T09:53:57;0.43;46.67
72772;SHT30;60894;42.544;1.516;2023-01-29T09:56:29;0.76;45.65
72772;SHT30;60894;42.544;1.516;2023-01-29T09:58:57;0.68;44.76
72772;SHT30;60894;42.544;1.516;2023-01-29T10:01:31;0.91;44.56
72772;SHT30;60894;42.544;1.516;2023-01-29T10:04:13;1.36;44.68
72772;SHT30;60894;42.544;1.516;2023-01-29T10:06:50;1.46;44.04
72772;SHT30;60894;42.544;1.516;2023-01-29T10:12:32;2.11;42.09
72772;SHT30;60894;42.544;1.516;2023-01-29T10:15:08;2.46;41.91
72772;SHT30;60894;42.544;1.516;2023-01-29T10:17:52;2.69;40.46
72772;SHT30;60894;42.544;1.516;2023-01-29T10:20:35;2.83;40.62
72772;SHT30;60894;42.544;1.516;2023-01-29T10:23:14;2.88;39.73
72772;SHT30;60894;42.544;1.516;2023-01-29T10:25:43;3.04;40.02
72772;SHT30;60894;42.544;1.516;2023-01-29T10:28:16;3.37;39.08
72772;SHT30;60894;42.544;1.516;2023-01-29T10:30:47;3.68;38.77
72772;SHT30;60894;42.544;1.516;2023-01-29T10:33:18;3.78;37.78
72772;SHT30;60894;42.544;1.516;2023-01-29T10:35:49;4.03;38.45
72772;SHT30;60894;42.544;1.516;2023-01-29T10:38:27;4.20;38.23
72772;SHT30;60894;42.544;1.516;2023-01-29T10:41:04;4.39;37.10
72772;SHT30;60894;42.544;1.516;2023-01-29T10:43:38;4.20;36.52
72772;SHT30;60894;42.544;1.516;2023-01-29T10:46:20;4.29;37.14
72772;SHT30;60894;42.544;1.516;2023-01-29T10:48:56;4.23;37.50
72772;SHT30;60894;42.544;1.516;2023-01-29T10:54:36;4.42;36.57
72772;SHT30;60894;42.544;1.516;2023-01-29T10:57:13;4.78;36.93
72772;SHT30;60894;42.544;1.516;2023-01-29T10:59:54;5.24;35.25
72772;SHT30;60894;42.544;1.516;2023-01-29T11:02:24;5.63;39.37
72772;SHT30;60894;42.544;1.516;2023-01-29T11:04:51;5.93;34.51
72772;SHT30;60894;42.544;1.516;2023-01-29T11:07:21;6.08;34.25
72772;SHT30;60894;42.544;1.516;2023-01-29T11:09:55;6.08;33.91
72772;SHT30;60894;42.544;1.516;2023-01-29T11:12:26;5.96;33.98
72772;SHT30;60894;42.544;1.516;2023-01-29T11:15:00;6.17;34.02
72772;SHT30;60894;42.544;1.516;2023-01-29T11:17:28;6.04;33.70
72772;SHT30;60894;42.544;1.516;2023-01-29T11:19:55;6.14;34.27
72772;SHT30;60894;42.544;1.516;2023-01-29T11:22:23;6.28;33.69
72772;SHT30;60894;42.544;1.516;2023-01-29T11:25:07;5.90;32.44
72772;SHT30;60894;42.544;1.516;2023-01-29T11:27:41;5.81;33.80
72772;SHT30;60894;42.544;1.516;2023-01-29T11:30:19;5.34;34.75
72772;SHT30;60894;42.544;1.516;2023-01-29T11:32:50;5.19;34.56
72772;SHT30;60894;42.544;1.516;2023-01-29T11:35:23;4.63;34.51
72772;SHT30;60894;42.544;1.516;2023-01-29T11:37:51;5.14;34.84
72772;SHT30;60894;42.544;1.516;2023-01-29T11:40:41;5.39;33.50
72772;SHT30;60894;42.544;1.516;2023-01-29T11:43:19;5.46;33.32
72772;SHT30;60894;42.544;1.516;2023-01-29T11:45:50;5.07;33.89
72772;SHT30;60894;42.544;1.516;2023-01-29T11:48:20;4.99;34.49
72772;SHT30;60894;42.544;1.516;2023-01-29T11:50:51;4.75;34.34
72772;SHT30;60894;42.544;1.516;2023-01-29T11:53:35;4.54;35.00
72772;SHT30;60894;42.544;1.516;2023-01-29T11:56:05;4.43;35.15
72772;SHT30;60894;42.544;1.516;2023-01-29T11:58:41;4.71;35.41
72772;SHT30;60894;42.544;1.516;2023-01-29T12:01:11;4.99;34.95
72772;SHT30;60894;42.544;1.516;2023-01-29T12:03:41;5.01;34.37
72772;SHT30;60894;42.544;1.516;2023-01-29T12:06:16;4.99;34.01
72772;SHT30;60894;42.544;1.516;2023-01-29T12:08:53;5.32;34.01
72772;SHT30;60894;42.544;1.516;2023-01-29T12:11:27;5.89;33.08
72772;SHT30;60894;42.544;1.516;2023-01-29T12:13:56;6.41;32.72
72772;SHT30;60894;42.544;1.516;2023-01-29T12:16:28;6.64;32.26
72772;SHT30;60894;42.544;1.516;2023-01-29T12:19:05;6.11;32.31
72772;SHT30;60894;42.544;1.516;2023-01-29T12:21:39;6.31;32.70
72772;SHT30;60894;42.544;1.516;2023-01-29T12:24:27;6.29;33.03
72772;SHT30;60894;42.544;1.516;2023-01-29T12:27:01;6.59;32.49
72772;SHT30;60894;42.544;1.516;2023-01-29T12:29:36;7.20;31.88
72772;SHT30;60894;42.544;1.516;2023-01-29T12:32:13;6.72;32.10
72772;SHT30;60894;42.544;1.516;2023-01-29T12:34:48;6.50;31.55
72772;SHT30;60894;42.544;1.516;2023-01-29T12:37:20;6.86;32.56
72772;SHT30;60894;42.544;1.516;2023-01-29T12:39:50;6.38;31.31
72772;SHT30;60894;42.544;1.516;2023-01-29T12:42:19;6.18;31.80
72772;SHT30;60894;42.544;1.516;2023-01-29T12:44:50;5.89;32.89
72772;SHT30;60894;42.544;1.516;2023-01-29T12:47:22;5.80;32.66
72772;SHT30;60894;42.544;1.516;2023-01-29T12:49:55;6.24;32.54
72772;SHT30;60894;42.544;1.516;2023-01-29T12:52:35;6.17;32.33
72772;SHT30;60894;42.544;1.516;2023-01-29T12:55:09;6.29;33.07
72772;SHT30;60894;42.544;1.516;2023-01-29T12:57:43;6.14;33.21
72772;SHT30;60894;42.544;1.516;2023-01-29T13:00:15;6.55;33.42
72772;SHT30;60894;42.544;1.516;2023-01-29T13:02:51;6.99;32.57
72772;SHT30;60894;42.544;1.516;2023-01-29T13:05:23;6.27;33.14
72772;SHT30;60894;42.544;1.516;2023-01-29T13:07:57;6.64;33.33
72772;SHT30;60894;42.544;1.516;2023-01-29T13:10:28;6.72;32.35
72772;SHT30;60894;42.544;1.516;2023-01-29T13:13:00;6.82;32.98
72772;SHT30;60894;42.544;1.516;2023-01-29T13:15:30;6.88;32.13
72772;SHT30;60894;42.544;1.516;2023-01-29T13:20:59;7.27;31.84
72772;SHT30;60894;42.544;1.516;2023-01-29T13:23:32;7.32;31.84
72772;SHT30;60894;42.544;1.516;2023-01-29T13:26:00;7.10;32.12
72772;SHT30;60894;42.544;1.516;2023-01-29T13:28:27;7.61;31.75
72772;SHT30;60894;42.544;1.516;2023-01-29T13:31:25;7.37;31.75
72772;SHT30;60894;42.544;1.516;2023-01-29T13:34:02;7.31;32.04
72772;SHT30;60894;42.544;1.516;2023-01-29T13:36:31;7.92;31.63
72772;SHT30;60894;42.544;1.516;2023-01-29T13:39:03;7.74;31.39
72772;SHT30;60894;42.544;1.516;2023-01-29T13:41:36;7.69;31.79
72772;SHT30;60894;42.544;1.516;2023-01-29T13:44:06;7.46;32.18
72772;SHT30;60894;42.544;1.516;2023-01-29T13:46:39;8.28;31.40
72772;SHT30;60894;42.544;1.516;2023-01-29T13:49:23;8.75;30.10
72772;SHT30;60894;42.544;1.516;2023-01-29T13:51:51;8.82;29.65
72772;SHT30;60894;42.544;1.516;2023-01-29T13:54:22;8.67;30.53
72772;SHT30;60894;42.544;1.516;2023-01-29T13:56:58;9.08;30.06
72772;SHT30;60894;42.544;1.516;2023-01-29T13:59:50;9.01;29.11
72772;SHT30;60894;42.544;1.516;2023-01-29T14:02:23;8.97;29.25
72772;SHT30;60894;42.544;1.516;2023-01-29T14:07:59;9.08;28.70
72772;SHT30;60894;42.544;1.516;2023-01-29T14:10:27;8.65;29.58
72772;SHT30;60894;42.544;1.516;2023-01-29T14:13:25;8.60;29.73
72772;SHT30;60894;42.544;1.516;2023-01-29T14:16:26;9.29;29.04
72772;SHT30;60894;42.544;1.516;2023-01-29T14:18:59;10.24;29.21
72772;SHT30;60894;42.544;1.516;2023-01-29T14:21:30;10.04;28.82
72772;SHT30;60894;42.544;1.516;2023-01-29T14:24:06;10.10;27.25
72772;SHT30;60894;42.544;1.516;2023-01-29T14:26:40;9.80;26.97
72772;SHT30;60894;42.544;1.516;2023-01-29T14:29:17;10.05;27.57
72772;SHT30;60894;42.544;1.516;2023-01-29T14:31:51;9.84;27.37
72772;SHT30;60894;42.544;1.516;2023-01-29T14:34:27;10.20;29.01
72772;SHT30;60894;42.544;1.516;2023-01-29T14:36:59;10.85;28.26
72772;SHT30;60894;42.544;1.516;2023-01-29T14:39:32;9.86;28.99
72772;SHT30;60894;42.544;1.516;2023-01-29T14:42:01;10.32;29.12
72772;SHT30;60894;42.544;1.516;2023-01-29T14:44:57;11.13;28.10
72772;SHT30;60894;42.544;1.516;2023-01-29T14:50:40;9.95;30.62
72772;SHT30;60894;42.544;1.516;2023-01-29T14:53:13;10.48;29.31
72772;SHT30;60894;42.544;1.516;2023-01-29T14:55:43;10.91;29.15
72772;SHT30;60894;42.544;1.516;2023-01-29T14:58:13;10.82;28.12
72772;SHT30;60894;42.544;1.516;2023-01-29T15:00:43;10.77;28.31
72772;SHT30;60894;42.544;1.516;2023-01-29T15:03:14;8.92;31.59
72772;SHT30;60894;42.544;1.516;2023-01-29T15:05:45;8.68;31.10
72772;SHT30;60894;42.544;1.516;2023-01-29T15:08:20;8.34;31.46
72772;SHT30;60894;42.544;1.516;2023-01-29T15:10:56;7.89;33.44
72772;SHT30;60894;42.544;1.516;2023-01-29T15:13:44;7.46;34.93
72772;SHT30;60894;42.544;1.516;2023-01-29T15:16:16;6.96;35.26
72772;SHT30;60894;42.544;1.516;2023-01-29T15:18:44;6.42;36.76
72772;SHT30;60894;42.544;1.516;2023-01-29T15:21:13;6.17;37.15
72772;SHT30;60894;42.544;1.516;2023-01-29T15:23:43;6.13;38.11
72772;SHT30;60894;42.544;1.516;2023-01-29T15:26:11;5.98;38.18
72772;SHT30;60894;42.544;1.516;2023-01-29T15:28:40;5.76;38.82
72772;SHT30;60894;42.544;1.516;2023-01-29T15:31:11;5.67;38.82
72772;SHT30;60894;42.544;1.516;2023-01-29T15:33:41;5.66;38.12
72772;SHT30;60894;42.544;1.516;2023-01-29T15:36:16;5.47;38.67
72772;SHT30;60894;42.544;1.516;2023-01-29T15:38:46;5.38;38.92
72772;SHT30;60894;42.544;1.516;2023-01-29T15:41:17;5.11;39.59
72772;SHT30;60894;42.544;1.516;2023-01-29T15:43:46;4.75;41.10
72772;SHT30;60894;42.544;1.516;2023-01-29T15:46:19;4.74;40.53
72772;SHT30;60894;42.544;1.516;2023-01-29T15:48:48;4.54;42.00
72772;SHT30;60894;42.544;1.516;2023-01-29T15:51:17;4.42;41.76
72772;SHT30;60894;42.544;1.516;2023-01-29T15:53:48;4.36;41.42
72772;SHT30;60894;42.544;1.516;2023-01-29T15:56:18;4.22;41.43
72772;SHT30;60894;42.544;1.516;2023-01-29T15:58:48;4.19;41.71
72772;SHT30;60894;42.544;1.516;2023-01-29T16:01:16;4.12;42.03
72772;SHT30;60894;42.544;1.516;2023-01-29T16:03:43;3.92;42.93
72772;SHT30;60894;42.544;1.516;2023-01-29T16:06:11;3.78;43.00
72772;SHT30;60894;42.544;1.516;2023-01-29T16:08:39;3.75;43.57
72772;SHT30;60894;42.544;1.516;2023-01-29T16:11:08;3.64;43.42
72772;SHT30;60894;42.544;1.516;2023-01-29T16:13:39;3.35;45.73
72772;SHT30;60894;42.544;1.516;2023-01-29T16:16:18;3.27;45.46
72772;SHT30;60894;42.544;1.516;2023-01-29T16:18:47;3.50;43.94
72772;SHT30;60894;42.544;1.516;2023-01-29T16:21:22;3.44;43.85
72772;SHT30;60894;42.544;1.516;2023-01-29T16:23:53;3.34;44.18